createdAt,value
2022-09-09T00:00:29.017Z,95.68
2022-09-09T00:01:28.999Z,95.42
2022-09-09T00:02:29.096Z,95.53
2022-09-09T00:03:29.079Z,95.53
2022-09-09T00:04:28.959Z,95.63
2022-09-09T00:05:28.942Z,95.63
2022-09-09T00:06:28.929Z,95.73
2022-09-09T00:07:28.917Z,95.83
2022-09-09T00:08:28.997Z,95.83
2022-09-09T00:09:28.890Z,95.73
2022-09-09T00:10:28.882Z,95.83
2022-09-09T00:11:31.466Z,95.83
2022-09-09T00:12:28.852Z,95.83
2022-09-09T00:13:28.853Z,95.83
2022-09-09T00:14:28.832Z,95.83
2022-09-09T00:15:28.853Z,95.94
2022-09-09T00:16:28.811Z,95.94
2022-09-09T00:17:28.793Z,96.03
2022-09-09T00:18:28.803Z,96.14
2022-09-09T00:19:28.770Z,96.23
2022-09-09T00:20:28.753Z,96.14
2022-09-09T00:21:28.733Z,96.03
2022-09-09T00:22:28.723Z,96.03
2022-09-09T00:23:28.714Z,96.03
2022-09-09T00:24:28.696Z,96.14
2022-09-09T00:25:29.628Z,96.03
2022-09-09T00:26:28.676Z,95.94
2022-09-09T00:27:28.656Z,95.83
2022-09-09T00:28:28.704Z,95.94
2022-09-09T00:29:28.630Z,95.94
2022-09-09T00:30:28.617Z,95.89
2022-09-09T00:31:28.687Z,95.73
2022-09-09T00:32:28.609Z,95.73
2022-09-09T00:33:28.589Z,95.83
2022-09-09T00:34:28.582Z,95.83
2022-09-09T00:35:28.559Z,95.94
2022-09-09T00:36:28.538Z,96.03
2022-09-09T00:37:28.544Z,96.03
2022-09-09T00:38:28.556Z,96.14
2022-09-09T00:39:28.489Z,96.23
2022-09-09T00:40:28.479Z,96.23
2022-09-09T00:41:28.469Z,96.14
2022-09-09T00:42:28.467Z,96.14
2022-09-09T00:43:28.444Z,96.23
2022-09-09T00:44:28.431Z,96.34
2022-09-09T00:45:28.417Z,96.34
2022-09-09T00:46:28.439Z,96.14
2022-09-09T00:47:28.428Z,96.14
2022-09-09T00:48:28.415Z,96.14
2022-09-09T00:49:28.363Z,96.14
2022-09-09T00:50:28.352Z,96.23
2022-09-09T00:51:28.343Z,96.34
2022-09-09T00:52:28.344Z,96.34
2022-09-09T00:53:28.313Z,96.34
2022-09-09T00:54:28.305Z,96.38
2022-09-09T00:55:28.284Z,96.38
2022-09-09T00:56:28.271Z,96.44
2022-09-09T00:57:28.266Z,96.48
2022-09-09T00:58:28.246Z,96.48
2022-09-09T00:59:28.651Z,96.48
2022-09-09T01:00:28.215Z,96.48
2022-09-09T01:01:28.224Z,96.59
2022-09-09T01:02:28.228Z,96.59
2022-09-09T01:03:28.175Z,96.38
2022-09-09T01:04:28.219Z,96.48
2022-09-09T01:05:28.148Z,96.48
2022-09-09T01:06:28.137Z,96.59
2022-09-09T01:07:28.136Z,96.69
2022-09-09T01:08:28.118Z,96.69
2022-09-09T01:09:28.099Z,96.89
2022-09-09T01:10:28.099Z,96.79
2022-09-09T01:11:28.078Z,96.69
2022-09-09T01:12:28.082Z,96.69
2022-09-09T01:13:28.049Z,96.79
2022-09-09T01:14:28.841Z,96.89
2022-09-09T01:15:28.020Z,96.79
2022-09-09T01:16:28.041Z,96.69
2022-09-09T01:17:28.001Z,96.69
2022-09-09T01:18:27.981Z,96.79
2022-09-09T01:19:27.971Z,96.89
2022-09-09T01:20:27.964Z,96.89
2022-09-09T01:21:27.941Z,96.89
2022-09-09T01:22:27.942Z,96.79
2022-09-09T01:23:27.920Z,96.89
2022-09-09T01:24:27.908Z,96.89
2022-09-09T01:25:27.886Z,96.89
2022-09-09T01:26:27.883Z,96.79
2022-09-09T01:27:27.875Z,96.89
2022-09-09T01:28:27.856Z,96.89
2022-09-09T01:29:27.837Z,96.94
2022-09-09T01:30:27.881Z,97.04
2022-09-09T01:31:27.806Z,97.14
2022-09-09T01:32:27.815Z,96.99
2022-09-09T01:33:27.786Z,96.99
2022-09-09T01:35:51.887Z,97.04
2022-09-09T01:36:36.972Z,97.04
2022-09-09T01:37:36.969Z,97.04
2022-09-09T01:38:36.949Z,97.04
2022-09-09T01:39:37.025Z,97.04
2022-09-09T01:40:36.919Z,97.04
2022-09-09T01:41:36.903Z,97.04
2022-09-09T01:42:36.923Z,97.14
2022-09-09T01:43:36.875Z,97.14
2022-09-09T01:44:36.864Z,97.09
2022-09-09T01:45:36.901Z,97.09
2022-09-09T01:46:36.839Z,97.04
2022-09-09T01:47:36.833Z,97.09
2022-09-09T01:48:36.918Z,97.04
2022-09-09T01:49:36.795Z,97.04
2022-09-09T01:50:36.784Z,96.99
2022-09-09T01:51:36.768Z,96.94
2022-09-09T01:52:36.777Z,97.04
2022-09-09T01:53:36.746Z,96.94
2022-09-09T01:54:36.737Z,96.94
2022-09-09T01:55:36.720Z,97.04
2022-09-09T01:56:36.706Z,97.04
2022-09-09T01:57:36.697Z,97.04
2022-09-09T01:58:36.807Z,96.99
2022-09-09T01:59:36.667Z,96.94
2022-09-09T02:00:36.654Z,96.89
2022-09-09T02:01:36.710Z,96.79
2022-09-09T02:02:36.693Z,96.89
2022-09-09T02:03:36.608Z,96.99
2022-09-09T02:04:36.600Z,96.89
2022-09-09T02:05:36.589Z,96.79
2022-09-09T02:06:36.570Z,96.69
2022-09-09T02:07:36.569Z,96.59
2022-09-09T02:08:36.703Z,96.48
2022-09-09T02:09:36.539Z,96.59
2022-09-09T02:10:36.520Z,96.59
2022-09-09T02:11:36.510Z,96.69
2022-09-09T02:12:36.521Z,96.59
2022-09-09T02:13:36.482Z,96.48
2022-09-09T02:14:36.472Z,96.38
2022-09-09T02:15:36.453Z,96.18
2022-09-09T02:16:36.488Z,95.98
2022-09-09T02:17:36.423Z,96.08
2022-09-09T02:18:36.477Z,95.98
2022-09-09T02:19:36.403Z,95.98
2022-09-09T02:20:36.393Z,95.98
2022-09-09T02:21:36.384Z,95.98
2022-09-09T02:22:36.364Z,95.87
2022-09-09T02:23:36.354Z,95.87
2022-09-09T02:24:36.347Z,95.87
2022-09-09T02:25:36.324Z,95.98
2022-09-09T02:26:36.325Z,95.98
2022-09-09T02:27:36.295Z,95.98
2022-09-09T02:28:36.457Z,96.08
2022-09-09T02:29:36.267Z,95.98
2022-09-09T02:30:36.316Z,96.08
2022-09-09T02:31:36.246Z,96.08
2022-09-09T02:32:36.232Z,95.98
2022-09-09T02:33:36.218Z,95.98
2022-09-09T02:34:36.208Z,95.98
2022-09-09T02:35:36.188Z,95.98
2022-09-09T02:36:36.191Z,95.98
2022-09-09T02:37:36.166Z,95.78
2022-09-09T02:38:36.349Z,95.87
2022-09-09T02:39:36.200Z,95.92
2022-09-09T02:40:36.144Z,95.92
2022-09-09T02:41:36.120Z,96.12
2022-09-09T02:42:36.100Z,96.12
2022-09-09T02:43:36.100Z,96.12
2022-09-09T02:44:36.071Z,96.12
2022-09-09T02:45:36.084Z,96.12
2022-09-09T02:46:36.061Z,96.12
2022-09-09T02:47:36.031Z,96.23
2022-09-09T02:48:36.112Z,96.43
2022-09-09T02:49:36.001Z,96.43
2022-09-09T02:50:35.992Z,96.53
2022-09-09T02:51:35.994Z,96.53
2022-09-09T02:52:35.971Z,96.23
2022-09-09T02:53:35.953Z,96.23
2022-09-09T02:54:35.946Z,96.23
2022-09-09T02:55:35.924Z,96.23
2022-09-09T02:56:35.929Z,96.12
2022-09-09T02:57:35.904Z,96.12
2022-09-09T02:58:35.973Z,95.92
2022-09-09T02:59:35.875Z,95.92
2022-09-09T03:00:35.865Z,95.82
2022-09-09T03:01:35.943Z,95.82
2022-09-09T03:02:35.854Z,95.72
2022-09-09T03:03:35.824Z,95.62
2022-09-09T03:04:35.817Z,95.62
2022-09-09T03:05:35.798Z,95.72
2022-09-09T03:06:35.793Z,95.51
2022-09-09T03:07:35.768Z,95.51
2022-09-09T03:08:35.889Z,95.62
2022-09-09T03:09:35.743Z,95.62
2022-09-09T03:10:35.754Z,95.62
2022-09-09T03:11:35.727Z,95.62
2022-09-09T03:12:35.708Z,95.72
2022-09-09T03:13:35.689Z,95.82
2022-09-09T03:14:35.690Z,95.72
2022-09-09T03:15:35.671Z,95.82
2022-09-09T03:16:35.817Z,95.72
2022-09-09T03:17:35.640Z,95.72
2022-09-09T03:18:35.655Z,95.72
2022-09-09T03:19:35.612Z,95.62
2022-09-09T03:20:36.564Z,95.72
2022-09-09T03:21:35.601Z,95.82
2022-09-09T03:22:35.582Z,95.82
2022-09-09T03:23:35.563Z,95.82
2022-09-09T03:24:35.552Z,95.82
2022-09-09T03:25:35.533Z,95.82
2022-09-09T03:26:35.533Z,95.82
2022-09-09T03:27:35.510Z,95.92
2022-09-09T03:28:35.625Z,95.92
2022-09-09T03:29:35.483Z,95.82
2022-09-09T03:30:35.473Z,95.82
2022-09-09T03:31:35.523Z,95.72
2022-09-09T03:32:35.452Z,95.72
2022-09-09T03:33:35.434Z,95.62
2022-09-09T03:34:35.422Z,95.62
2022-09-09T03:35:35.417Z,95.76
2022-09-09T03:36:35.405Z,95.76
2022-09-09T03:37:35.378Z,95.72
2022-09-09T03:38:35.464Z,95.76
2022-09-09T03:39:35.424Z,95.72
2022-09-09T03:40:35.353Z,95.76
2022-09-09T03:41:35.329Z,95.72
2022-09-09T03:42:35.318Z,95.72
2022-09-09T03:43:35.298Z,95.76
2022-09-09T03:44:35.288Z,95.76
2022-09-09T03:45:35.340Z,95.76
2022-09-09T03:46:35.265Z,95.86
2022-09-09T03:47:35.248Z,95.97
2022-09-09T03:48:35.356Z,95.97
2022-09-09T03:49:35.220Z,95.97
2022-09-09T03:50:35.219Z,95.97
2022-09-09T03:51:35.200Z,96.07
2022-09-09T03:52:35.186Z,95.97
2022-09-09T03:53:35.170Z,96.07
2022-09-09T03:54:35.160Z,95.97
2022-09-09T03:55:35.152Z,96.07
2022-09-09T03:56:35.132Z,96.07
2022-09-09T03:57:35.120Z,95.97
2022-09-09T03:58:35.209Z,95.97
2022-09-09T03:59:35.092Z,96.07
2022-09-09T04:00:35.092Z,96.07
2022-09-09T04:01:35.132Z,96.17
2022-09-09T04:02:35.127Z,96.17
2022-09-09T04:03:35.044Z,96.17
2022-09-09T04:04:35.024Z,96.17
2022-09-09T04:05:35.026Z,96.17
2022-09-09T04:06:34.994Z,96.27
2022-09-09T04:07:34.985Z,96.27
2022-09-09T04:08:35.099Z,96.17
2022-09-09T04:09:34.966Z,96.27
2022-09-09T04:10:34.955Z,96.17
2022-09-09T04:11:34.942Z,96.07
2022-09-09T04:12:34.917Z,96.07
2022-09-09T04:13:34.913Z,96.07
2022-09-09T04:14:34.901Z,96.07
2022-09-09T04:15:34.896Z,96.17
2022-09-09T04:16:35.032Z,96.17
2022-09-09T04:17:34.857Z,96.07
2022-09-09T04:18:34.908Z,96.17
2022-09-09T04:19:34.837Z,96.27
2022-09-09T04:20:34.828Z,96.27
2022-09-09T04:21:34.809Z,96.27
2022-09-09T04:22:34.791Z,96.27
2022-09-09T04:23:34.779Z,96.17
2022-09-09T04:24:34.762Z,96.27
2022-09-09T04:25:34.760Z,96.17
2022-09-09T04:26:34.729Z,96.07
2022-09-09T04:27:34.721Z,95.97
2022-09-09T04:28:34.793Z,95.86
2022-09-09T04:29:34.699Z,95.66
2022-09-09T04:30:34.692Z,95.62
2022-09-09T04:31:34.713Z,95.62
2022-09-09T04:32:34.652Z,95.31
2022-09-09T04:33:39.420Z,95.21
2022-09-09T04:34:35.632Z,95.21
2022-09-09T04:35:34.623Z,95.21
2022-09-09T04:36:34.604Z,95.21
2022-09-09T04:37:34.594Z,94.90
2022-09-09T04:38:34.585Z,94.90
2022-09-09T04:39:34.617Z,95.01
2022-09-09T04:40:34.555Z,95.10
2022-09-09T04:41:34.541Z,94.90
2022-09-09T04:42:34.526Z,94.90
2022-09-09T04:43:34.516Z,94.80
2022-09-09T04:44:34.495Z,94.80
2022-09-09T04:45:34.564Z,94.90
2022-09-09T04:46:34.465Z,95.01
2022-09-09T04:47:34.466Z,95.01
2022-09-09T04:48:34.522Z,94.90
2022-09-09T04:49:34.446Z,94.90
2022-09-09T04:50:34.417Z,94.80
2022-09-09T04:51:34.408Z,94.80
2022-09-09T04:52:34.387Z,94.80
2022-09-09T04:53:34.382Z,94.70
2022-09-09T04:54:34.379Z,94.70
2022-09-09T04:55:34.354Z,94.60
2022-09-09T04:56:34.338Z,94.60
2022-09-09T04:57:34.328Z,94.70
2022-09-09T04:58:34.380Z,94.60
2022-09-09T04:59:34.310Z,94.60
2022-09-09T05:00:34.334Z,94.45
2022-09-09T05:01:34.283Z,94.45
2022-09-09T05:02:34.306Z,94.50
2022-09-09T05:03:34.255Z,94.56
2022-09-09T05:04:34.254Z,94.66
2022-09-09T05:05:34.231Z,94.56
2022-09-09T05:06:34.213Z,94.35
2022-09-09T05:07:34.204Z,94.45
2022-09-09T05:08:34.243Z,94.35
2022-09-09T05:09:34.182Z,94.35
2022-09-09T05:10:34.170Z,94.25
2022-09-09T05:11:34.144Z,93.84
2022-09-09T05:12:34.133Z,93.84
2022-09-09T05:13:36.376Z,93.60
2022-09-09T05:14:34.114Z,93.29
2022-09-09T05:15:34.095Z,93.49
2022-09-09T05:16:34.128Z,93.40
2022-09-09T05:17:34.076Z,93.19
2022-09-09T05:18:34.111Z,93.29
2022-09-09T05:19:34.059Z,93.25
2022-09-09T05:20:34.026Z,93.15
2022-09-09T05:21:34.015Z,93.25
2022-09-09T05:22:33.997Z,93.15
2022-09-09T05:23:33.988Z,92.94
2022-09-09T05:24:33.987Z,92.74
2022-09-09T05:25:33.967Z,92.70
2022-09-09T05:26:33.954Z,92.70
2022-09-09T05:27:33.938Z,92.60
2022-09-09T05:28:33.974Z,92.40
2022-09-09T05:29:33.924Z,91.99
2022-09-09T05:30:33.888Z,92.09
2022-09-09T05:31:33.979Z,91.94
2022-09-09T05:32:33.870Z,91.74
2022-09-09T05:33:33.860Z,91.54
2022-09-09T05:34:34.806Z,91.64
2022-09-09T05:35:34.787Z,91.24
2022-09-09T05:36:33.821Z,90.93
2022-09-09T05:37:33.808Z,90.99
2022-09-09T05:38:34.737Z,91.19
2022-09-09T05:39:33.815Z,90.99
2022-09-09T05:40:33.769Z,90.79
2022-09-09T05:41:33.755Z,90.79
2022-09-09T05:42:33.745Z,90.58
2022-09-09T05:43:33.741Z,90.48
2022-09-09T05:44:33.719Z,90.69
2022-09-09T05:45:33.699Z,90.48
2022-09-09T05:46:33.727Z,90.48
2022-09-09T05:47:33.674Z,90.95
2022-09-09T05:48:33.703Z,90.44
2022-09-09T05:49:33.651Z,90.54
2022-09-09T05:50:33.625Z,90.54
2022-09-09T05:51:33.623Z,90.54
2022-09-09T05:52:33.607Z,90.75
2022-09-09T05:53:33.585Z,90.24
2022-09-09T05:54:33.591Z,90.03
2022-09-09T05:55:33.566Z,89.94
2022-09-09T05:56:33.546Z,89.73
2022-09-09T05:57:33.538Z,90.14
2022-09-09T05:58:33.558Z,89.79
2022-09-09T05:59:33.515Z,89.99
2022-09-09T06:00:33.488Z,89.69
2022-09-09T06:01:33.532Z,90.09
2022-09-09T06:02:33.577Z,89.48
2022-09-09T06:03:33.458Z,89.79
2022-09-09T06:04:33.449Z,89.79
2022-09-09T06:05:33.450Z,89.69
2022-09-09T06:06:33.409Z,90.09
2022-09-09T06:07:33.400Z,89.65
2022-09-09T06:08:33.381Z,89.04
2022-09-09T06:09:33.380Z,89.85
2022-09-09T06:10:33.363Z,89.34
2022-09-09T06:11:33.347Z,89.24
2022-09-09T06:12:33.330Z,89.95
2022-09-09T06:13:33.318Z,90.05
2022-09-09T06:14:33.321Z,89.54
2022-09-09T06:15:33.294Z,88.84
2022-09-09T06:16:33.345Z,88.74
2022-09-09T06:17:33.262Z,89.24
2022-09-09T06:18:33.283Z,89.24
2022-09-09T06:19:33.244Z,88.74
2022-09-09T06:20:33.217Z,88.70
2022-09-09T06:21:33.211Z,88.90
2022-09-09T06:22:33.195Z,89.30
2022-09-09T06:23:33.184Z,89.20
2022-09-09T06:24:33.172Z,89.70
2022-09-09T06:25:33.153Z,89.61
2022-09-09T06:26:33.137Z,90.27
2022-09-09T06:27:33.127Z,89.46
2022-09-09T06:28:33.181Z,89.56
2022-09-09T06:29:33.117Z,89.06
2022-09-09T06:30:33.099Z,89.06
2022-09-09T06:31:33.108Z,88.71
2022-09-09T06:32:33.057Z,88.51
2022-09-09T06:33:33.048Z,88.61
2022-09-09T06:34:33.038Z,88.61
2022-09-09T06:35:33.019Z,88.47
2022-09-09T06:36:32.999Z,88.06
2022-09-09T06:37:32.997Z,87.86
2022-09-09T06:38:33.937Z,87.56
2022-09-09T06:39:33.044Z,88.06
2022-09-09T06:40:32.950Z,87.86
2022-09-09T06:41:32.940Z,87.86
2022-09-09T06:42:32.921Z,87.56
2022-09-09T06:43:33.879Z,87.46
2022-09-09T06:44:35.227Z,87.36
2022-09-09T06:45:32.882Z,87.26
2022-09-09T06:46:32.899Z,87.46
2022-09-09T06:47:32.853Z,88.02
2022-09-09T06:48:32.858Z,87.82
2022-09-09T06:49:32.837Z,87.72
2022-09-09T06:50:32.813Z,87.41
2022-09-09T06:51:32.806Z,87.62
2022-09-09T06:52:32.784Z,87.12
2022-09-09T06:53:32.785Z,87.32
2022-09-09T06:54:33.714Z,87.32
2022-09-09T06:55:32.747Z,87.12
2022-09-09T06:56:32.734Z,86.87
2022-09-09T06:57:39.791Z,86.81
2022-09-09T06:58:34.698Z,86.57
2022-09-09T06:59:32.702Z,86.47
2022-09-09T07:00:32.729Z,86.36
2022-09-09T07:01:32.699Z,86.77
2022-09-09T07:02:32.647Z,86.27
2022-09-09T07:03:33.592Z,86.57
2022-09-09T07:04:32.637Z,86.27
2022-09-09T07:05:32.629Z,86.07
2022-09-09T07:06:32.598Z,86.36
2022-09-09T07:07:32.589Z,85.92
2022-09-09T07:08:33.591Z,86.02
2022-09-09T07:09:32.567Z,86.73
2022-09-09T07:10:32.549Z,86.33
2022-09-09T07:11:32.532Z,85.66
2022-09-09T07:12:32.521Z,85.52
2022-09-09T07:13:32.530Z,85.22
2022-09-09T07:14:32.503Z,85.96
2022-09-09T07:15:32.482Z,85.66
2022-09-09T07:16:32.468Z,85.46
2022-09-09T07:17:32.462Z,85.66
2022-09-09T07:18:32.487Z,85.46
2022-09-09T07:19:32.423Z,85.56
2022-09-09T07:20:32.412Z,85.66
2022-09-09T07:21:32.399Z,85.56
2022-09-09T07:22:32.392Z,85.92
2022-09-09T07:23:36.170Z,85.52
2022-09-09T07:24:32.355Z,85.52
2022-09-09T07:25:32.345Z,85.62
2022-09-09T07:26:33.285Z,85.11
2022-09-09T07:27:32.326Z,85.38
2022-09-09T07:28:33.312Z,85.38
2022-09-09T07:29:32.297Z,84.77
2022-09-09T07:30:32.286Z,84.77
2022-09-09T07:31:32.318Z,84.67
2022-09-09T07:32:32.256Z,84.88
2022-09-09T07:33:33.301Z,84.37
2022-09-09T07:34:32.217Z,85.08
2022-09-09T07:35:32.208Z,85.17
2022-09-09T07:36:33.470Z,84.97
2022-09-09T07:37:32.186Z,85.38
2022-09-09T07:38:32.205Z,84.77
2022-09-09T07:39:32.215Z,84.07
2022-09-09T07:40:32.139Z,84.33
2022-09-09T07:41:32.130Z,84.63
2022-09-09T07:42:32.120Z,84.03
2022-09-09T07:43:32.110Z,83.93
2022-09-09T07:44:32.093Z,84.23
2022-09-09T07:45:32.081Z,84.03
2022-09-09T07:46:32.135Z,85.28
2022-09-09T07:47:32.052Z,85.48
2022-09-09T07:48:32.042Z,85.28
2022-09-09T07:49:32.986Z,85.38
2022-09-09T07:50:32.003Z,84.88
2022-09-09T07:51:32.951Z,84.77
2022-09-09T07:52:31.974Z,85.28
2022-09-09T07:53:32.009Z,85.14
2022-09-09T07:54:32.996Z,84.53
2022-09-09T07:55:31.943Z,84.83
2022-09-09T07:56:33.714Z,84.49
2022-09-09T07:57:31.921Z,84.80
2022-09-09T07:58:36.351Z,83.04
2022-09-09T07:59:32.890Z,81.73
2022-09-09T08:00:31.866Z,82.60
2022-09-09T08:01:31.943Z,83.17
2022-09-09T08:02:31.853Z,81.15
2022-09-09T08:03:31.911Z,80.55
2022-09-09T08:04:31.819Z,81.76
2022-09-09T08:05:31.805Z,80.95
2022-09-09T08:06:31.788Z,81.82
2022-09-09T08:07:31.778Z,81.62
2022-09-09T08:08:31.769Z,81.72
2022-09-09T08:09:31.749Z,81.82
2022-09-09T08:10:31.739Z,81.01
2022-09-09T08:11:35.338Z,81.12
2022-09-09T08:12:32.710Z,80.41
2022-09-09T08:13:31.710Z,80.31
2022-09-09T08:14:31.682Z,80.51
2022-09-09T08:15:32.622Z,80.98
2022-09-09T08:16:31.652Z,80.57
2022-09-09T08:17:31.643Z,80.74
2022-09-09T08:18:31.642Z,80.33
2022-09-09T08:19:31.623Z,80.63
2022-09-09T08:20:31.604Z,79.63
2022-09-09T08:21:31.596Z,80.60
2022-09-09T08:22:31.584Z,79.69
2022-09-09T08:23:31.574Z,78.69
2022-09-09T08:24:31.554Z,79.09
2022-09-09T08:25:31.535Z,79.16
2022-09-09T08:26:31.533Z,78.55
2022-09-09T08:27:31.507Z,78.35
2022-09-09T08:28:31.506Z,78.75
2022-09-09T08:29:31.504Z,78.85
2022-09-09T08:30:31.478Z,78.15
2022-09-09T08:31:31.587Z,78.05
2022-09-09T08:32:31.450Z,78.35
2022-09-09T08:33:31.437Z,77.72
2022-09-09T08:34:31.429Z,77.58
2022-09-09T08:35:31.399Z,76.87
2022-09-09T08:36:31.399Z,77.74
2022-09-09T08:37:31.379Z,76.24
2022-09-09T08:38:31.370Z,75.17
2022-09-09T08:39:31.395Z,76.98
2022-09-09T08:40:31.340Z,76.87
2022-09-09T08:41:31.322Z,76.17
2022-09-09T08:42:31.311Z,77.48
2022-09-09T08:43:31.304Z,76.34
2022-09-09T08:44:31.289Z,76.17
2022-09-09T08:45:31.272Z,77.21
2022-09-09T08:46:31.305Z,77.72
2022-09-09T08:47:33.954Z,77.11
2022-09-09T08:48:31.243Z,77.67
2022-09-09T08:49:31.213Z,78.78
2022-09-09T08:50:31.204Z,77.81
2022-09-09T08:51:31.195Z,77.91
2022-09-09T08:52:31.175Z,77.91
2022-09-09T08:53:31.176Z,78.02
2022-09-09T08:54:51.047Z,78.22
2022-09-09T08:55:32.136Z,78.72
2022-09-09T08:56:31.124Z,78.55
2022-09-09T08:57:31.111Z,77.65
2022-09-09T08:58:31.103Z,78.96
2022-09-09T08:59:31.080Z,78.66
2022-09-09T09:00:31.068Z,79.46
2022-09-09T09:01:31.133Z,78.66
2022-09-09T09:02:31.039Z,77.81
2022-09-09T09:03:31.039Z,78.42
2022-09-09T09:04:31.094Z,79.42
2022-09-09T09:05:31.003Z,78.48
2022-09-09T09:06:30.990Z,77.98
2022-09-09T09:07:32.949Z,77.67
2022-09-09T09:08:30.971Z,77.08
2022-09-09T09:09:30.952Z,77.48
2022-09-09T09:10:41.626Z,79.78
2022-09-09T09:11:31.922Z,77.67
2022-09-09T09:12:30.922Z,77.87
2022-09-09T09:13:30.905Z,78.08
2022-09-09T09:14:30.889Z,76.47
2022-09-09T09:15:32.641Z,77.37
2022-09-09T09:16:30.856Z,76.87
2022-09-09T09:17:30.844Z,78.58
2022-09-09T09:18:30.835Z,78.02
2022-09-09T09:19:30.815Z,78.11
2022-09-09T09:20:30.813Z,78.05
2022-09-09T09:21:30.786Z,78.61
2022-09-09T09:22:30.787Z,78.98
2022-09-09T09:23:30.767Z,78.78
2022-09-09T09:24:30.757Z,78.44
2022-09-09T09:25:30.794Z,76.94
2022-09-09T09:26:30.725Z,76.20
2022-09-09T09:27:30.718Z,76.56
2022-09-09T09:28:30.701Z,76.46
2022-09-09T09:29:30.679Z,74.56
2022-09-09T09:30:30.979Z,75.87
2022-09-09T09:31:30.756Z,75.96
2022-09-09T09:32:30.658Z,74.37
2022-09-09T09:33:30.633Z,74.37
2022-09-09T09:34:30.621Z,73.96
2022-09-09T09:35:30.602Z,74.76
2022-09-09T09:36:30.592Z,75.56
2022-09-09T09:37:30.740Z,74.87
2022-09-09T09:40:31.543Z,76.33
2022-09-09T09:41:30.523Z,76.29
2022-09-09T09:42:30.524Z,75.05
2022-09-09T09:43:30.570Z,74.42
2022-09-09T09:44:30.484Z,76.02
2022-09-09T09:45:30.478Z,74.08
2022-09-09T09:46:30.508Z,73.39
2022-09-09T09:47:30.456Z,73.15
2022-09-09T09:48:30.437Z,73.45
2022-09-09T09:49:30.416Z,72.52
2022-09-09T09:50:30.407Z,70.23
2022-09-09T09:51:30.399Z,71.22
2022-09-09T09:52:30.396Z,71.39
2022-09-09T09:53:30.381Z,70.32
2022-09-09T09:54:30.359Z,69.89
2022-09-09T09:55:30.339Z,70.29
2022-09-09T09:56:30.339Z,69.66
2022-09-09T09:57:30.366Z,70.99
2022-09-09T09:58:30.342Z,70.03
2022-09-09T09:59:39.153Z,70.23
2022-09-09T10:00:31.271Z,69.53
2022-09-09T10:01:30.318Z,71.09
2022-09-09T10:02:30.262Z,69.79
2022-09-09T10:03:30.295Z,69.29
2022-09-09T10:04:30.298Z,68.19
2022-09-09T10:05:35.533Z,70.03
2022-09-09T10:06:31.204Z,70.42
2022-09-09T10:07:30.197Z,71.06
2022-09-09T10:08:30.222Z,71.06
2022-09-09T10:09:30.156Z,69.69
2022-09-09T10:10:30.145Z,70.29
2022-09-09T10:11:30.127Z,71.66
2022-09-09T10:12:30.152Z,72.25
2022-09-09T10:13:30.107Z,71.56
2022-09-09T10:14:30.092Z,71.62
2022-09-09T10:15:30.099Z,71.66
2022-09-09T10:16:30.067Z,71.06
2022-09-09T10:17:30.057Z,70.86
2022-09-09T10:18:30.100Z,69.26
2022-09-09T10:19:30.019Z,70.16
2022-09-09T10:20:30.009Z,71.12
2022-09-09T10:21:33.091Z,69.23
2022-09-09T10:22:30.055Z,69.82
2022-09-09T10:23:30.027Z,69.73
2022-09-09T10:24:29.957Z,70.32
2022-09-09T10:25:29.941Z,70.42
2022-09-09T10:26:29.931Z,69.43
2022-09-09T10:27:29.924Z,69.32
2022-09-09T10:28:29.974Z,67.73
2022-09-09T10:29:29.928Z,71.32
2022-09-09T10:30:29.883Z,71.22
2022-09-09T10:31:29.929Z,71.12
2022-09-09T10:32:29.864Z,68.99
2022-09-09T10:33:29.872Z,68.99
2022-09-09T10:34:31.612Z,70.09
2022-09-09T10:35:29.805Z,69.20
2022-09-09T10:36:29.815Z,68.19
2022-09-09T10:37:29.856Z,69.86
2022-09-09T10:38:29.772Z,68.56
2022-09-09T10:39:29.762Z,69.46
2022-09-09T10:40:29.744Z,70.12
2022-09-09T10:41:29.749Z,70.16
2022-09-09T10:42:29.728Z,69.86
2022-09-09T10:43:29.740Z,70.06
2022-09-09T10:44:29.695Z,68.66
2022-09-09T10:45:29.699Z,67.96
2022-09-09T10:46:29.690Z,69.66
2022-09-09T10:47:29.677Z,70.32
2022-09-09T10:48:29.642Z,68.03
2022-09-09T10:49:29.622Z,66.91
2022-09-09T10:50:50.384Z,68.50
2022-09-09T10:51:30.592Z,67.00
2022-09-09T10:52:29.609Z,67.80
2022-09-09T10:53:29.606Z,69.85
2022-09-09T10:54:29.559Z,67.17
2022-09-09T10:55:30.142Z,68.16
2022-09-09T10:56:29.536Z,69.23
2022-09-09T10:57:29.526Z,68.40
2022-09-09T10:58:29.515Z,69.06
2022-09-09T10:59:29.494Z,69.06
2022-09-09T11:00:29.485Z,64.89
2022-09-09T11:01:29.514Z,65.95
2022-09-09T11:02:29.469Z,65.42
2022-09-09T11:03:29.530Z,65.22
2022-09-09T11:04:29.457Z,65.99
2022-09-09T11:05:29.420Z,65.36
2022-09-09T11:06:29.443Z,64.86
2022-09-09T11:07:29.399Z,65.39
2022-09-09T11:08:29.385Z,64.53
2022-09-09T11:09:29.357Z,63.86
2022-09-09T11:10:29.351Z,66.15
2022-09-09T11:11:29.330Z,63.76
2022-09-09T11:12:29.330Z,64.56
2022-09-09T11:13:29.311Z,64.89
2022-09-09T11:14:30.023Z,63.40
2022-09-09T11:15:29.291Z,64.92
2022-09-09T11:16:29.313Z,67.93
2022-09-09T11:17:29.274Z,67.33
2022-09-09T11:18:29.332Z,66.01
2022-09-09T11:19:29.241Z,66.91
2022-09-09T11:20:29.224Z,66.31
2022-09-09T11:21:29.205Z,66.41
2022-09-09T11:22:29.206Z,65.42
2022-09-09T11:23:29.175Z,64.89
2022-09-09T11:24:29.191Z,67.30
2022-09-09T11:25:29.146Z,65.81
2022-09-09T11:26:29.158Z,62.50
2022-09-09T11:27:29.132Z,64.69
2022-09-09T11:28:29.964Z,63.17
2022-09-09T11:29:29.098Z,64.83
2022-09-09T11:31:30.135Z,62.81
2022-09-09T11:32:29.072Z,63.70
2022-09-09T11:33:29.041Z,63.48
2022-09-09T11:34:29.097Z,60.60
2022-09-09T11:35:29.020Z,59.97
2022-09-09T11:36:29.012Z,61.36
2022-09-09T11:37:29.001Z,61.63
2022-09-09T11:38:28.982Z,60.83
2022-09-09T11:39:28.962Z,57.97
2022-09-09T11:40:28.958Z,61.23
2022-09-09T11:41:28.941Z,59.28
2022-09-09T11:42:28.933Z,60.07
2022-09-09T11:43:28.915Z,58.22
2022-09-09T11:44:28.941Z,62.29
2022-09-09T11:45:28.885Z,60.47
2022-09-09T11:46:28.897Z,63.34
2022-09-09T11:47:28.876Z,59.70
2022-09-09T11:48:28.846Z,63.67
2022-09-09T11:49:28.827Z,61.49
2022-09-09T11:50:28.826Z,61.52
2022-09-09T11:51:28.808Z,60.70
2022-09-09T11:52:28.804Z,62.68
2022-09-09T11:53:28.786Z,59.38
2022-09-09T11:54:28.770Z,60.77
2022-09-09T11:55:28.749Z,59.38
2022-09-09T11:56:28.739Z,60.47
2022-09-09T11:57:28.730Z,58.29
2022-09-09T11:58:28.722Z,58.91
2022-09-09T11:59:28.701Z,60.00
2022-09-09T12:00:28.691Z,59.01
2022-09-09T12:01:28.674Z,59.91
2022-09-09T12:02:28.686Z,60.13
2022-09-09T12:03:28.647Z,61.82
2022-09-09T12:04:28.633Z,59.07
2022-09-09T12:05:28.623Z,59.83
2022-09-09T12:06:28.605Z,60.43
2022-09-09T12:07:28.596Z,59.63
2022-09-09T12:08:28.585Z,60.06
2022-09-09T12:09:28.569Z,58.77
2022-09-09T12:10:28.566Z,59.34
2022-09-09T12:11:28.546Z,59.63
2022-09-09T12:12:28.557Z,59.14
2022-09-09T12:13:28.509Z,59.83
2022-09-09T12:14:28.498Z,60.80
2022-09-09T12:15:28.488Z,59.51
2022-09-09T12:16:28.528Z,56.63
2022-09-09T12:17:28.459Z,58.64
2022-09-09T12:18:28.450Z,59.86
2022-09-09T12:19:28.441Z,59.86
2022-09-09T12:20:28.431Z,60.28
2022-09-09T12:21:28.419Z,59.09
2022-09-09T12:22:28.399Z,59.42
2022-09-09T12:23:28.383Z,60.55
2022-09-09T12:24:28.373Z,61.44
2022-09-09T12:25:28.373Z,62.63
2022-09-09T12:26:28.343Z,63.26
2022-09-09T12:27:28.324Z,61.67
2022-09-09T12:28:28.314Z,61.67
2022-09-09T12:29:28.294Z,60.84
2022-09-09T12:30:28.295Z,59.35
2022-09-09T12:31:28.273Z,62.23
2022-09-09T12:32:28.265Z,63.85
2022-09-09T12:33:28.246Z,63.36
2022-09-09T12:34:28.237Z,62.76
2022-09-09T12:35:28.229Z,63.95
2022-09-09T12:36:28.208Z,61.47
2022-09-09T12:37:28.198Z,57.66
2022-09-09T12:38:28.178Z,59.62
2022-09-09T12:39:28.171Z,61.48
2022-09-09T12:40:28.158Z,61.12
2022-09-09T12:41:28.140Z,59.51
2022-09-09T12:42:28.130Z,59.67
2022-09-09T12:43:28.112Z,56.28
2022-09-09T12:44:28.096Z,57.93
2022-09-09T12:45:28.101Z,57.84
2022-09-09T12:46:28.902Z,57.84
2022-09-09T12:47:30.262Z,54.72
2022-09-09T12:48:28.063Z,58.02
2022-09-09T12:49:28.033Z,59.83
2022-09-09T12:50:28.024Z,60.63
2022-09-09T12:51:28.015Z,60.93
2022-09-09T12:52:27.996Z,57.06
2022-09-09T12:53:27.985Z,57.95
2022-09-09T12:54:27.967Z,58.54
2022-09-09T12:55:27.962Z,60.03
2022-09-09T12:56:27.936Z,59.23